Issaquah — WSD3625 — position and weather

sailwx.info

Track history (hours):
 
Tides and Currents Weather Stations Pressure Air Temp Water Temp Dewpoint Dewpoint Depression Visibility Wind Speed Wind Dir Waves Ship Positions

Issaquah

Owner: WASHINGTON, STATE OF; Department of Transportation, OLYMPIA, WA. More information available from US FCC via Universal Licensing System and Coast Guard Vessel Documentation Center.

Last reported at 2018-Jan-24 02:00 UTC. Time now 2018-Jan-24 02:02 UTC.
Position N 47°31' W 122°27'.

Length 100 m; draft 5 m.

Type: Passenger vessel. MMSI: 366773040.

Date/timePositionNaut miles runAvg speedWind from/ knotsBaromVisibWave heightAir tempDewpointWater temp
2018-Jan-24 02:00N 47°31' W 122°27'2 4.0
2018-Jan-24 01:30N 47°31' W 122°24'2 4.8
2018-Jan-24 01:00N 47°31' W 122°27'2 4.8
2018-Jan-24 00:31N 47°31' W 122°24'4 7.8
2018-Jan-23 23:59N 47°31' W 122°30'4 8.4
2018-Jan-23 23:30N 47°31' W 122°24'2 4.6
2018-Jan-23 23:00N 47°32' W 122°27'1 2.5
2018-Jan-23 22:30N 47°31' W 122°29'3 5.4
2018-Jan-23 22:01N 47°31' W 122°25'0 0.4
2018-Jan-23 21:31N 47°31' W 122°25'1 2.0
2018-Jan-23 21:01N 47°31' W 122°24'4 7.3
2018-Jan-23 20:30N 47°31' W 122°29'1 2.0
2018-Jan-23 20:01N 47°31' W 122°28'3 5.5
2018-Jan-23 19:30N 47°31' W 122°24'3 5.6
2018-Jan-23 19:00N 47°31' W 122°28'3 5.5
2018-Jan-23 18:31N 47°31' W 122°24'4 7.9
2018-Jan-23 18:01N 47°31' W 122°30'1 2.5
2018-Jan-23 17:31N 47°31' W 122°28'3 5.6
2018-Jan-23 17:01N 47°31' W 122°24'3 5.4
2018-Jan-23 16:31N 47°31' W 122°28'1 1.7
2018-Jan-23 16:00N 47°31' W 122°27'1 2.8
2018-Jan-23 15:31N 47°31' W 122°25'2 3.2
2018-Jan-23 15:00N 47°31' W 122°27'2 3.4
2018-Jan-23 14:30N 47°31' W 122°25'3 6.8
2018-Jan-23 14:00N 47°31' W 122°30'1 2.6
2018-Jan-23 13:30N 47°31' W 122°28'3 5.6
2018-Jan-23 13:00N 47°31' W 122°24'3 5.5
2018-Jan-23 12:31N 47°31' W 122°28'1 2.6
2018-Jan-23 12:00N 47°31' W 122°30'0 0.0
2018-Jan-23 11:30N 47°31' W 122°30'0 0.0
2018-Jan-23 11:01N 47°31' W 122°30'1 2.6
2018-Jan-23 10:30N 47°31' W 122°28'3 5.6
2018-Jan-23 10:01N 47°31' W 122°24'4 7.9
2018-Jan-23 09:30N 47°31' W 122°30'3 6.0
2018-Jan-23 09:00N 47°31' W 122°25'2 4.5
2018-Jan-23 08:30N 47°31' W 122°28'1 1.3
2018-Jan-23 08:00N 47°31' W 122°28'3 5.6
2018-Jan-23 07:30N 47°31' W 122°24'4 8.1
2018-Jan-23 07:00N 47°31' W 122°30'2 3.5
2018-Jan-23 06:31N 47°31' W 122°27'0 1.0
2018-Jan-23 06:00N 47°31' W 122°27'0 0.8
2018-Jan-23 05:30N 47°31' W 122°27'2 4.3
2018-Jan-23 05:01N 47°31' W 122°24'3 6.8
2018-Jan-23 04:31N 47°31' W 122°29'0 0.8
2018-Jan-23 04:00N 47°31' W 122°28'3 6.2
2018-Jan-23 03:31N 47°31' W 122°24'3 5.5
2018-Jan-23 03:00N 47°31' W 122°28'1 2.7
2018-Jan-23 02:30N 47°31' W 122°30'1 2.6
2018-Jan-23 02:01N 47°31' W 122°28'3 5.6
2018-Jan-23 01:30N 47°31' W 122°24'3 5.6
2018-Jan-23 01:01N 47°31' W 122°28'3 5.5
2018-Jan-23 00:30N 47°31' W 122°24'4 8.2
2018-Jan-23 00:00N 47°31' W 122°30'4 8.2
2018-Jan-22 23:31N 47°31' W 122°24'2 3.6
2018-Jan-22 23:00N 47°32' W 122°26'1 2.8
2018-Jan-22 22:31N 47°31' W 122°28'3 5.1
2018-Jan-22 22:00N 47°31' W 122°25'1 1.1
2018-Jan-22 21:31N 47°32' W 122°25'1 2.0
2018-Jan-22 21:00N 47°31' W 122°24'4 7.6
2018-Jan-22 20:30N 47°31' W 122°29'1 2.3
2018-Jan-22 20:00N 47°31' W 122°28'3 5.5
2018-Jan-22 19:30N 47°31' W 122°24'3 5.6
2018-Jan-22 19:01N 47°31' W 122°28'3 5.5
2018-Jan-22 18:30N 47°31' W 122°24'4 7.1
2018-Jan-22 18:01N 47°31' W 122°29'1 2.0
2018-Jan-22 17:30N 47°31' W 122°28'3 5.6
2018-Jan-22 17:00N 47°31' W 122°24'3 5.3
2018-Jan-22 16:30N 47°31' W 122°28'1 1.5
2018-Jan-22 16:00N 47°32' W 122°27'1 2.1
2018-Jan-22 15:31N 47°31' W 122°26'0 0.8
2018-Jan-22 15:01N 47°31' W 122°26'1 1.3
2018-Jan-22 14:30N 47°31' W 122°26'2 4.5
2018-Jan-22 14:00N 47°31' W 122°30'1 2.6
2018-Jan-22 13:30N 47°31' W 122°28'3 5.6
2018-Jan-22 13:01N 47°31' W 122°24'3 5.5
2018-Jan-22 12:31N 47°31' W 122°28'1 2.6
2018-Jan-22 12:01N 47°31' W 122°30'0 0.0
2018-Jan-22 11:30N 47°31' W 122°30'1 2.6
2018-Jan-22 11:01N 47°31' W 122°28'1 1.8
2018-Jan-22 10:30N 47°31' W 122°27'2 4.1
2018-Jan-22 10:00N 47°31' W 122°30'0 1.0
2018-Jan-22 09:31N 47°31' W 122°29'3 5.4
2018-Jan-22 09:01N 47°31' W 122°25'2 4.8
2018-Jan-22 08:31N 47°31' W 122°29'1 1.6
2018-Jan-22 08:00N 47°31' W 122°28'3 5.7
2018-Jan-22 07:31N 47°31' W 122°24'4 8.1
2018-Jan-22 07:00N 47°31' W 122°30'2 4.9
2018-Jan-22 06:30N 47°31' W 122°26'1 2.4
2018-Jan-22 06:00N 47°31' W 122°28'1 1.3
2018-Jan-22 05:30N 47°31' W 122°27'2 3.4
2018-Jan-22 05:01N 47°31' W 122°25'3 6.9
2018-Jan-22 04:31N 47°31' W 122°30'1 2.4
2018-Jan-22 04:00N 47°31' W 122°28'3 5.6
2018-Jan-22 03:30N 47°31' W 122°24'3 5.5
2018-Jan-22 03:01N 47°31' W 122°28'0 0.7
2018-Jan-22 02:30N 47°31' W 122°28'3 5.9
2018-Jan-22 02:00N 47°31' W 122°24'3 5.6
2018-Jan-22 01:30N 47°31' W 122°28'1 2.6
2018-Jan-22 01:00N 47°31' W 122°30'2 3.7
2018-Jan-22 00:31N 47°31' W 122°27'2 3.3
2018-Jan-22 00:01N 47°31' W 122°25'2 3.3
2018-Jan-21 23:30N 47°31' W 122°27'2 3.7
2018-Jan-21 23:00N 47°31' W 122°24'2 3.7
2018-Jan-21 22:30N 47°31' W 122°27'1 2.9
2018-Jan-21 22:00N 47°31' W 122°25'0 0.2
2018-Jan-21 21:31N 47°31' W 122°25'1 2.5
2018-Jan-21 21:00N 47°31' W 122°27'2 4.1
2018-Jan-21 20:30N 47°31' W 122°30'1 2.6
2018-Jan-21 20:00N 47°31' W 122°28'3 5.6
2018-Jan-21 19:30N 47°31' W 122°24'4 7.1
2018-Jan-21 19:01N 47°31' W 122°29'1 1.8
2018-Jan-21 18:31N 47°31' W 122°28'3 5.6
2018-Jan-21 18:00N 47°31' W 122°24'3 5.6
2018-Jan-21 17:30N 47°31' W 122°28'1 2.5
2018-Jan-21 17:01N 47°31' W 122°30'3 6.0
2018-Jan-21 16:30N 47°31' W 122°25'1 1.8
2018-Jan-21 16:00N 47°31' W 122°24'4 7.2
2018-Jan-21 15:30N 47°31' W 122°29'1 2.6
2018-Jan-21 15:00N 47°31' W 122°27'1 1.2
2018-Jan-21 14:30N 47°31' W 122°28'1 2.8
2018-Jan-21 14:00N 47°31' W 122°30'4 8.0
2018-Jan-21 13:30N 47°31' W 122°24'0 0.0
2018-Jan-21 13:00N 47°31' W 122°24'3 5.8
2018-Jan-21 12:31N 47°31' W 122°28'1 2.4
2018-Jan-21 12:00N 47°31' W 122°30'0 0.0
2018-Jan-21 11:30N 47°31' W 122°30'0 0.0
2018-Jan-21 11:00N 47°31' W 122°30'1 2.6
2018-Jan-21 10:30N 47°31' W 122°28'3 5.6
2018-Jan-21 10:00N 47°31' W 122°24'4 7.1
2018-Jan-21 09:30N 47°31' W 122°29'3 5.3
2018-Jan-21 09:00N 47°31' W 122°25'3 5.7
2018-Jan-21 08:30N 47°31' W 122°29'1 2.2
2018-Jan-21 08:00N 47°31' W 122°28'3 5.6
2018-Jan-21 07:30N 47°31' W 122°24'4 7.9
2018-Jan-21 07:00N 47°31' W 122°30'2 4.7
2018-Jan-21 06:30N 47°31' W 122°26'0 0.4
2018-Jan-21 06:00N 47°31' W 122°27'0 0.4
2018-Jan-21 05:30N 47°31' W 122°27'2 3.2
2018-Jan-21 05:00N 47°31' W 122°24'4 7.0
2018-Jan-21 04:30N 47°31' W 122°30'1 2.4
2018-Jan-21 04:00N 47°31' W 122°28'3 5.7
2018-Jan-21 03:31N 47°31' W 122°24'3 5.8
2018-Jan-21 03:00N 47°31' W 122°28'0 0.8
2018-Jan-21 02:30N 47°31' W 122°28'3 5.6
2018-Jan-21 02:00N 47°31' W 122°24'3 5.5
2018-Jan-21 01:30N 47°31' W 122°28'1 2.7
2018-Jan-21 01:01N 47°31' W 122°30'2 4.4
2018-Jan-21 00:30N 47°31' W 122°27'1 2.4
2018-Jan-21 00:01N 47°31' W 122°25'1 2.4
2018-Jan-20 23:30N 47°31' W 122°27'2 3.0
2018-Jan-20 23:00N 47°31' W 122°24'2 3.7
2018-Jan-20 22:30N 47°31' W 122°27'1 2.8
2018-Jan-20 22:01N 47°31' W 122°25'1 2.4
2018-Jan-20 21:31N 47°31' W 122°27'1 1.7
2018-Jan-20 21:00N 47°31' W 122°26'3 5.7
2018-Jan-20 20:30N 47°31' W 122°30'1 2.7
2018-Jan-20 20:01N 47°31' W 122°28'3 5.5
2018-Jan-20 19:31N 47°31' W 122°24'4 7.4
2018-Jan-20 19:01N 47°31' W 122°29'1 1.9
2018-Jan-20 18:30N 47°31' W 122°28'3 5.6
2018-Jan-20 18:00N 47°31' W 122°24'3 5.5
2018-Jan-20 17:30N 47°31' W 122°28'1 2.6
2018-Jan-20 17:00N 47°31' W 122°30'3 6.8
2018-Jan-20 16:30N 47°31' W 122°25'1 1.2
2018-Jan-20 16:01N 47°31' W 122°24'3 6.8
2018-Jan-20 15:30N 47°31' W 122°29'1 2.5
2018-Jan-20 15:00N 47°31' W 122°27'1 2.8
2018-Jan-20 14:30N 47°31' W 122°25'3 6.6
2018-Jan-20 14:00N 47°31' W 122°30'1 2.6
2018-Jan-20 13:31N 47°31' W 122°28'3 5.5
2018-Jan-20 13:00N 47°31' W 122°24'3 6.1
2018-Jan-20 12:31N 47°31' W 122°28'1 2.2
2018-Jan-20 12:00N 47°31' W 122°30'0 0.0
2018-Jan-20 11:30N 47°31' W 122°30'0 0.0
2018-Jan-20 11:00N 47°31' W 122°30'1 2.6
2018-Jan-20 10:30N 47°31' W 122°28'3 5.3
2018-Jan-20 10:00N 47°31' W 122°24'4 7.3
2018-Jan-20 09:31N 47°31' W 122°29'3 5.9
2018-Jan-20 09:00N 47°31' W 122°25'3 6.2
2018-Jan-20 08:30N 47°31' W 122°30'1 2.4
2018-Jan-20 08:00N 47°31' W 122°28'2 4.5
2018-Jan-20 07:30N 47°31' W 122°25'2 4.3
2018-Jan-20 07:00N 47°31' W 122°28'3 5.1
2018-Jan-20 06:30N 47°31' W 122°24'2 4.5
2018-Jan-20 06:00N 47°31' W 122°27'1 2.9
2018-Jan-20 05:30N 47°31' W 122°30'3 6.9
2018-Jan-20 05:00N 47°32' W 122°25'2 4.6
2018-Jan-20 04:31N 47°31' W 122°28'3 5.5
2018-Jan-20 04:00N 47°31' W 122°24'3 5.5
2018-Jan-20 03:31N 47°31' W 122°28'0 0.5
2018-Jan-20 03:01N 47°31' W 122°28'3 5.6
2018-Jan-20 02:30N 47°31' W 122°24'4 8.1
2018-Jan-20 02:00N 47°31' W 122°30'1 2.6
2018-Jan-20 01:31N 47°31' W 122°28'3 5.5
2018-Jan-20 01:00N 47°31' W 122°24'3 5.7
2018-Jan-20 00:30N 47°31' W 122°28'3 5.6
2018-Jan-20 00:01N 47°31' W 122°24'3 5.5
2018-Jan-19 23:30N 47°31' W 122°28'0 0.1
2018-Jan-19 23:00N 47°31' W 122°28'2 4.9
2018-Jan-19 22:30N 47°31' W 122°24'2 5.0
2018-Jan-19 22:00N 47°31' W 122°28'0 0.0
2018-Jan-19 21:30N 47°31' W 122°28'2 4.1
2018-Jan-19 21:01N 47°32' W 122°25'1 2.3
2018-Jan-19 20:30N 47°31' W 122°26'1 2.2
2018-Jan-19 20:00N 47°31' W 122°25'2 4.1
2018-Jan-19 19:30N 47°31' W 122°28'1 2.7
2018-Jan-19 19:00N 47°31' W 122°30'2 3.7
2018-Jan-19 18:30N 47°31' W 122°27'2 4.4
2018-Jan-19 18:00N 47°31' W 122°24'3 5.6
2018-Jan-19 17:30N 47°31' W 122°28'1 1.3
2018-Jan-19 17:00N 47°31' W 122°28'3 5.8
2018-Jan-19 16:31N 47°31' W 122°24'4 7.8
2018-Jan-19 16:01N 47°31' W 122°30'1 2.4
2018-Jan-19 15:30N 47°31' W 122°28'3 5.6
2018-Jan-19 15:01N 47°31' W 122°24'3 5.5
2018-Jan-19 14:30N 47°31' W 122°28'3 5.5
2018-Jan-19 14:00N 47°31' W 122°24'3 5.6
2018-Jan-19 13:30N 47°31' W 122°28'0 0.0
2018-Jan-19 13:00N 47°31' W 122°28'0 0.0
2018-Jan-19 12:30N 47°31' W 122°28'0 0.0
2018-Jan-19 12:01N 47°31' W 122°28'0 0.0
2018-Jan-19 11:30N 47°31' W 122°28'0 0.0
2018-Jan-19 11:01N 47°31' W 122°28'0 0.0
2018-Jan-19 10:30N 47°31' W 122°28'0 0.0
2018-Jan-19 10:00N 47°31' W 122°28'0 0.0
2018-Jan-19 09:30N 47°31' W 122°28'0 0.0
2018-Jan-19 09:00N 47°31' W 122°28'0 0.0
2018-Jan-19 08:30N 47°31' W 122°28'0 0.0
2018-Jan-19 08:01N 47°31' W 122°28'0 0.0
2018-Jan-19 07:30N 47°31' W 122°28'0 0.0
2018-Jan-19 07:01N 47°31' W 122°28'0 0.0
2018-Jan-19 06:30N 47°31' W 122°28'0 0.0
2018-Jan-19 06:00N 47°31' W 122°28'1 2.6
2018-Jan-19 05:31N 47°31' W 122°30'3 6.1
2018-Jan-19 05:00N 47°31' W 122°25'2 3.8
2018-Jan-19 04:31N 47°31' W 122°28'3 5.5
2018-Jan-19 04:00N 47°31' W 122°24'3 5.6
2018-Jan-19 03:30N 47°31' W 122°28'0 0.4
2018-Jan-19 03:01N 47°31' W 122°28'3 5.6
2018-Jan-19 02:30N 47°31' W 122°24'4 8.1
2018-Jan-19 02:01N 47°31' W 122°30'1 2.6
2018-Jan-19 01:31N 47°31' W 122°28'3 5.6
2018-Jan-19 01:00N 47°31' W 122°24'3 5.6
2018-Jan-19 00:30N 47°31' W 122°28'3 5.5
2018-Jan-19 00:00N 47°31' W 122°24'2 4.1
2018-Jan-18 23:30N 47°31' W 122°27'0 0.5
2018-Jan-18 23:00N 47°31' W 122°27'2 3.5
2018-Jan-18 22:30N 47°31' W 122°25'2 4.5
2018-Jan-18 22:00N 47°31' W 122°28'0 0.0
2018-Jan-18 21:30N 47°31' W 122°28'2 4.0
2018-Jan-18 21:00N 47°31' W 122°25'1 2.0
2018-Jan-18 20:31N 47°31' W 122°26'1 2.6
2018-Jan-18 20:00N 47°31' W 122°24'2 4.7
2018-Jan-18 19:30N 47°31' W 122°28'1 2.7
2018-Jan-18 19:00N 47°31' W 122°30'2 4.0
2018-Jan-18 18:30N 47°31' W 122°27'2 4.1
2018-Jan-18 18:00N 47°31' W 122°24'3 5.5
2018-Jan-18 17:30N 47°31' W 122°28'1 1.4
2018-Jan-18 17:01N 47°31' W 122°28'2 3.9
2018-Jan-18 16:31N 47°31' W 122°25'3 5.5
2018-Jan-18 16:01N 47°31' W 122°29'1 1.9
2018-Jan-18 15:31N 47°31' W 122°28'3 5.5
2018-Jan-18 15:00N 47°31' W 122°24'3 5.5
2018-Jan-18 14:30N 47°31' W 122°28'3 5.5
2018-Jan-18 14:00N 47°31' W 122°24'3 5.6
2018-Jan-18 13:30N 47°31' W 122°28'0 0.0
2018-Jan-18 13:00N 47°31' W 122°28'0 0.0
2018-Jan-18 12:30N 47°31' W 122°28'0 0.0
2018-Jan-18 12:00N 47°31' W 122°28'0 0.0
2018-Jan-18 11:30N 47°31' W 122°28'0 0.0
2018-Jan-18 11:00N 47°31' W 122°28'0 0.0
2018-Jan-18 10:30N 47°31' W 122°28'0 0.0
2018-Jan-18 10:00N 47°31' W 122°28'0 0.0
2018-Jan-18 09:30N 47°31' W 122°28'0 0.0
2018-Jan-18 09:00N 47°31' W 122°28'0 0.0
2018-Jan-18 08:30N 47°31' W 122°28'0 0.0
2018-Jan-18 08:00N 47°31' W 122°28'0 0.0
2018-Jan-18 07:30N 47°31' W 122°28'0 0.0
2018-Jan-18 07:00N 47°31' W 122°28'0 0.0
2018-Jan-18 06:30N 47°31' W 122°28'0 0.0
2018-Jan-18 06:00N 47°31' W 122°28'1 2.6
2018-Jan-18 05:30N 47°31' W 122°30'3 6.8
2018-Jan-18 05:01N 47°31' W 122°25'2 4.4
2018-Jan-18 04:30N 47°31' W 122°28'3 5.5
2018-Jan-18 04:00N 47°31' W 122°24'3 6.7
2018-Jan-18 03:31N 47°31' W 122°29'1 1.4
2018-Jan-18 03:01N 47°31' W 122°28'3 5.6
2018-Jan-18 02:30N 47°31' W 122°24'4 8.1
2018-Jan-18 02:00N 47°31' W 122°30'2 4.2
2018-Jan-18 01:30N 47°31' W 122°27'2 4.0
2018-Jan-18 01:01N 47°31' W 122°24'0 0.0
2018-Jan-18 00:00N 47°31' W 122°24'0 0.0
2018-Jan-17 23:57N 47°31' W 122°24'  
Track history (hours):
 
Tides and Currents Weather Stations Pressure Air Temp Water Temp Dewpoint Dewpoint Depression Visibility Wind Speed Wind Dir Waves Ship Positions

Issaquah

Owner: WASHINGTON, STATE OF; Department of Transportation, OLYMPIA, WA. More information available from US FCC via Universal Licensing System and Coast Guard Vessel Documentation Center.

Last reported at 2018-Jan-24 02:00 UTC. Time now 2018-Jan-24 02:02 UTC.
Position N 47°31' W 122°27'.

Length 100 m; draft 5 m.

Type: Passenger vessel. MMSI: 366773040.

Date/timePositionNaut miles runAvg speedWind from/ knotsBaromVisibWave heightAir tempDewpointWater temp
2018-Jan-24 02:00N 47°31' W 122°27'2 4.0
2018-Jan-24 01:30N 47°31' W 122°24'2 4.8
2018-Jan-24 01:00N 47°31' W 122°27'2 4.8
2018-Jan-24 00:31N 47°31' W 122°24'4 7.8
2018-Jan-23 23:59N 47°31' W 122°30'4 8.4
2018-Jan-23 23:30N 47°31' W 122°24'2 4.6
2018-Jan-23 23:00N 47°32' W 122°27'1 2.5
2018-Jan-23 22:30N 47°31' W 122°29'3 5.4
2018-Jan-23 22:01N 47°31' W 122°25'0 0.4
2018-Jan-23 21:31N 47°31' W 122°25'1 2.0
2018-Jan-23 21:01N 47°31' W 122°24'4 7.3
2018-Jan-23 20:30N 47°31' W 122°29'1 2.0
2018-Jan-23 20:01N 47°31' W 122°28'3 5.5
2018-Jan-23 19:30N 47°31' W 122°24'3 5.6
2018-Jan-23 19:00N 47°31' W 122°28'3 5.5
2018-Jan-23 18:31N 47°31' W 122°24'4 7.9
2018-Jan-23 18:01N 47°31' W 122°30'1 2.5
2018-Jan-23 17:31N 47°31' W 122°28'3 5.6
2018-Jan-23 17:01N 47°31' W 122°24'3 5.4
2018-Jan-23 16:31N 47°31' W 122°28'1 1.7
2018-Jan-23 16:00N 47°31' W 122°27'1 2.8
2018-Jan-23 15:31N 47°31' W 122°25'2 3.2
2018-Jan-23 15:00N 47°31' W 122°27'2 3.4
2018-Jan-23 14:30N 47°31' W 122°25'3 6.8
2018-Jan-23 14:00N 47°31' W 122°30'1 2.6
2018-Jan-23 13:30N 47°31' W 122°28'3 5.6
2018-Jan-23 13:00N 47°31' W 122°24'3 5.5
2018-Jan-23 12:31N 47°31' W 122°28'1 2.6
2018-Jan-23 12:00N 47°31' W 122°30'0 0.0
2018-Jan-23 11:30N 47°31' W 122°30'0 0.0
2018-Jan-23 11:01N 47°31' W 122°30'1 2.6
2018-Jan-23 10:30N 47°31' W 122°28'3 5.6
2018-Jan-23 10:01N 47°31' W 122°24'4 7.9
2018-Jan-23 09:30N 47°31' W 122°30'3 6.0
2018-Jan-23 09:00N 47°31' W 122°25'2 4.5
2018-Jan-23 08:30N 47°31' W 122°28'1 1.3
2018-Jan-23 08:00N 47°31' W 122°28'3 5.6
2018-Jan-23 07:30N 47°31' W 122°24'4 8.1
2018-Jan-23 07:00N 47°31' W 122°30'2 3.5
2018-Jan-23 06:31N 47°31' W 122°27'0 1.0
2018-Jan-23 06:00N 47°31' W 122°27'0 0.8
2018-Jan-23 05:30N 47°31' W 122°27'2 4.3
2018-Jan-23 05:01N 47°31' W 122°24'3 6.8
2018-Jan-23 04:31N 47°31' W 122°29'0 0.8
2018-Jan-23 04:00N 47°31' W 122°28'3 6.2
2018-Jan-23 03:31N 47°31' W 122°24'3 5.5
2018-Jan-23 03:00N 47°31' W 122°28'1 2.7
2018-Jan-23 02:30N 47°31' W 122°30'1 2.6
2018-Jan-23 02:01N 47°31' W 122°28'3 5.6
2018-Jan-23 01:30N 47°31' W 122°24'3 5.6
2018-Jan-23 01:01N 47°31' W 122°28'3 5.5
2018-Jan-23 00:30N 47°31' W 122°24'4 8.2
2018-Jan-23 00:00N 47°31' W 122°30'4 8.2
2018-Jan-22 23:31N 47°31' W 122°24'2 3.6
2018-Jan-22 23:00N 47°32' W 122°26'1 2.8
2018-Jan-22 22:31N 47°31' W 122°28'3 5.1
2018-Jan-22 22:00N 47°31' W 122°25'1 1.1
2018-Jan-22 21:31N 47°32' W 122°25'1 2.0
2018-Jan-22 21:00N 47°31' W 122°24'4 7.6
2018-Jan-22 20:30N 47°31' W 122°29'1 2.3
2018-Jan-22 20:00N 47°31' W 122°28'3 5.5
2018-Jan-22 19:30N 47°31' W 122°24'3 5.6
2018-Jan-22 19:01N 47°31' W 122°28'3 5.5
2018-Jan-22 18:30N 47°31' W 122°24'4 7.1
2018-Jan-22 18:01N 47°31' W 122°29'1 2.0
2018-Jan-22 17:30N 47°31' W 122°28'3 5.6
2018-Jan-22 17:00N 47°31' W 122°24'3 5.3
2018-Jan-22 16:30N 47°31' W 122°28'1 1.5
2018-Jan-22 16:00N 47°32' W 122°27'1 2.1
2018-Jan-22 15:31N 47°31' W 122°26'0 0.8
2018-Jan-22 15:01N 47°31' W 122°26'1 1.3
2018-Jan-22 14:30N 47°31' W 122°26'2 4.5
2018-Jan-22 14:00N 47°31' W 122°30'1 2.6
2018-Jan-22 13:30N 47°31' W 122°28'3 5.6
2018-Jan-22 13:01N 47°31' W 122°24'3 5.5
2018-Jan-22 12:31N 47°31' W 122°28'1 2.6
2018-Jan-22 12:01N 47°31' W 122°30'0 0.0
2018-Jan-22 11:30N 47°31' W 122°30'1 2.6
2018-Jan-22 11:01N 47°31' W 122°28'1 1.8
2018-Jan-22 10:30N 47°31' W 122°27'2 4.1
2018-Jan-22 10:00N 47°31' W 122°30'0 1.0
2018-Jan-22 09:31N 47°31' W 122°29'3 5.4
2018-Jan-22 09:01N 47°31' W 122°25'2 4.8
2018-Jan-22 08:31N 47°31' W 122°29'1 1.6
2018-Jan-22 08:00N 47°31' W 122°28'3 5.7
2018-Jan-22 07:31N 47°31' W 122°24'4 8.1
2018-Jan-22 07:00N 47°31' W 122°30'2 4.9
2018-Jan-22 06:30N 47°31' W 122°26'1 2.4
2018-Jan-22 06:00N 47°31' W 122°28'1 1.3
2018-Jan-22 05:30N 47°31' W 122°27'2 3.4
2018-Jan-22 05:01N 47°31' W 122°25'3 6.9
2018-Jan-22 04:31N 47°31' W 122°30'1 2.4
2018-Jan-22 04:00N 47°31' W 122°28'3 5.6
2018-Jan-22 03:30N 47°31' W 122°24'3 5.5
2018-Jan-22 03:01N 47°31' W 122°28'0 0.7
2018-Jan-22 02:30N 47°31' W 122°28'3 5.9
2018-Jan-22 02:00N 47°31' W 122°24'3 5.6
2018-Jan-22 01:30N 47°31' W 122°28'1 2.6
2018-Jan-22 01:00N 47°31' W 122°30'2 3.7
2018-Jan-22 00:31N 47°31' W 122°27'2 3.3
2018-Jan-22 00:01N 47°31' W 122°25'2 3.3
2018-Jan-21 23:30N 47°31' W 122°27'2 3.7
2018-Jan-21 23:00N 47°31' W 122°24'2 3.7
2018-Jan-21 22:30N 47°31' W 122°27'1 2.9
2018-Jan-21 22:00N 47°31' W 122°25'0 0.2
2018-Jan-21 21:31N 47°31' W 122°25'1 2.5
2018-Jan-21 21:00N 47°31' W 122°27'2 4.1
2018-Jan-21 20:30N 47°31' W 122°30'1 2.6
2018-Jan-21 20:00N 47°31' W 122°28'3 5.6
2018-Jan-21 19:30N 47°31' W 122°24'4 7.1
2018-Jan-21 19:01N 47°31' W 122°29'1 1.8
2018-Jan-21 18:31N 47°31' W 122°28'3 5.6
2018-Jan-21 18:00N 47°31' W 122°24'3 5.6
2018-Jan-21 17:30N 47°31' W 122°28'1 2.5
2018-Jan-21 17:01N 47°31' W 122°30'3 6.0
2018-Jan-21 16:30N 47°31' W 122°25'1 1.8
2018-Jan-21 16:00N 47°31' W 122°24'4 7.2
2018-Jan-21 15:30N 47°31' W 122°29'1 2.6
2018-Jan-21 15:00N 47°31' W 122°27'1 1.2
2018-Jan-21 14:30N 47°31' W 122°28'1 2.8
2018-Jan-21 14:00N 47°31' W 122°30'4 8.0
2018-Jan-21 13:30N 47°31' W 122°24'0 0.0
2018-Jan-21 13:00N 47°31' W 122°24'3 5.8
2018-Jan-21 12:31N 47°31' W 122°28'1 2.4
2018-Jan-21 12:00N 47°31' W 122°30'0 0.0
2018-Jan-21 11:30N 47°31' W 122°30'0 0.0
2018-Jan-21 11:00N 47°31' W 122°30'1 2.6
2018-Jan-21 10:30N 47°31' W 122°28'3 5.6
2018-Jan-21 10:00N 47°31' W 122°24'4 7.1
2018-Jan-21 09:30N 47°31' W 122°29'3 5.3
2018-Jan-21 09:00N 47°31' W 122°25'3 5.7
2018-Jan-21 08:30N 47°31' W 122°29'1 2.2
2018-Jan-21 08:00N 47°31' W 122°28'3 5.6
2018-Jan-21 07:30N 47°31' W 122°24'4 7.9
2018-Jan-21 07:00N 47°31' W 122°30'2 4.7
2018-Jan-21 06:30N 47°31' W 122°26'0 0.4
2018-Jan-21 06:00N 47°31' W 122°27'0 0.4
2018-Jan-21 05:30N 47°31' W 122°27'2 3.2
2018-Jan-21 05:00N 47°31' W 122°24'4 7.0
2018-Jan-21 04:30N 47°31' W 122°30'1 2.4
2018-Jan-21 04:00N 47°31' W 122°28'3 5.7
2018-Jan-21 03:31N 47°31' W 122°24'3 5.8
2018-Jan-21 03:00N 47°31' W 122°28'0 0.8
2018-Jan-21 02:30N 47°31' W 122°28'3 5.6
2018-Jan-21 02:00N 47°31' W 122°24'3 5.5
2018-Jan-21 01:30N 47°31' W 122°28'1 2.7
2018-Jan-21 01:01N 47°31' W 122°30'2 4.4
2018-Jan-21 00:30N 47°31' W 122°27'1 2.4
2018-Jan-21 00:01N 47°31' W 122°25'1 2.4
2018-Jan-20 23:30N 47°31' W 122°27'2 3.0
2018-Jan-20 23:00N 47°31' W 122°24'2 3.7
2018-Jan-20 22:30N 47°31' W 122°27'1 2.8
2018-Jan-20 22:01N 47°31' W 122°25'1 2.4
2018-Jan-20 21:31N 47°31' W 122°27'1 1.7
2018-Jan-20 21:00N 47°31' W 122°26'3 5.7
2018-Jan-20 20:30N 47°31' W 122°30'1 2.7
2018-Jan-20 20:01N 47°31' W 122°28'3 5.5
2018-Jan-20 19:31N 47°31' W 122°24'4 7.4
2018-Jan-20 19:01N 47°31' W 122°29'1 1.9
2018-Jan-20 18:30N 47°31' W 122°28'3 5.6
2018-Jan-20 18:00N 47°31' W 122°24'3 5.5
2018-Jan-20 17:30N 47°31' W 122°28'1 2.6
2018-Jan-20 17:00N 47°31' W 122°30'3 6.8
2018-Jan-20 16:30N 47°31' W 122°25'1 1.2
2018-Jan-20 16:01N 47°31' W 122°24'3 6.8
2018-Jan-20 15:30N 47°31' W 122°29'1 2.5
2018-Jan-20 15:00N 47°31' W 122°27'1 2.8
2018-Jan-20 14:30N 47°31' W 122°25'3 6.6
2018-Jan-20 14:00N 47°31' W 122°30'1 2.6
2018-Jan-20 13:31N 47°31' W 122°28'3 5.5
2018-Jan-20 13:00N 47°31' W 122°24'3 6.1
2018-Jan-20 12:31N 47°31' W 122°28'1 2.2
2018-Jan-20 12:00N 47°31' W 122°30'0 0.0
2018-Jan-20 11:30N 47°31' W 122°30'0 0.0
2018-Jan-20 11:00N 47°31' W 122°30'1 2.6
2018-Jan-20 10:30N 47°31' W 122°28'3 5.3
2018-Jan-20 10:00N 47°31' W 122°24'4 7.3
2018-Jan-20 09:31N 47°31' W 122°29'3 5.9
2018-Jan-20 09:00N 47°31' W 122°25'3 6.2
2018-Jan-20 08:30N 47°31' W 122°30'1 2.4
2018-Jan-20 08:00N 47°31' W 122°28'2 4.5
2018-Jan-20 07:30N 47°31' W 122°25'2 4.3
2018-Jan-20 07:00N 47°31' W 122°28'3 5.1
2018-Jan-20 06:30N 47°31' W 122°24'2 4.5
2018-Jan-20 06:00N 47°31' W 122°27'1 2.9
2018-Jan-20 05:30N 47°31' W 122°30'3 6.9
2018-Jan-20 05:00N 47°32' W 122°25'2 4.6
2018-Jan-20 04:31N 47°31' W 122°28'3 5.5
2018-Jan-20 04:00N 47°31' W 122°24'3 5.5
2018-Jan-20 03:31N 47°31' W 122°28'0 0.5
2018-Jan-20 03:01N 47°31' W 122°28'3 5.6
2018-Jan-20 02:30N 47°31' W 122°24'4 8.1
2018-Jan-20 02:00N 47°31' W 122°30'1 2.6
2018-Jan-20 01:31N 47°31' W 122°28'3 5.5
2018-Jan-20 01:00N 47°31' W 122°24'3 5.7
2018-Jan-20 00:30N 47°31' W 122°28'3 5.6
2018-Jan-20 00:01N 47°31' W 122°24'3 5.5
2018-Jan-19 23:30N 47°31' W 122°28'0 0.1
2018-Jan-19 23:00N 47°31' W 122°28'2 4.9
2018-Jan-19 22:30N 47°31' W 122°24'2 5.0
2018-Jan-19 22:00N 47°31' W 122°28'0 0.0
2018-Jan-19 21:30N 47°31' W 122°28'2 4.1
2018-Jan-19 21:01N 47°32' W 122°25'1 2.3
2018-Jan-19 20:30N 47°31' W 122°26'1 2.2
2018-Jan-19 20:00N 47°31' W 122°25'2 4.1
2018-Jan-19 19:30N 47°31' W 122°28'1 2.7
2018-Jan-19 19:00N 47°31' W 122°30'2 3.7
2018-Jan-19 18:30N 47°31' W 122°27'2 4.4
2018-Jan-19 18:00N 47°31' W 122°24'3 5.6
2018-Jan-19 17:30N 47°31' W 122°28'1 1.3
2018-Jan-19 17:00N 47°31' W 122°28'3 5.8
2018-Jan-19 16:31N 47°31' W 122°24'4 7.8
2018-Jan-19 16:01N 47°31' W 122°30'1 2.4
2018-Jan-19 15:30N 47°31' W 122°28'3 5.6
2018-Jan-19 15:01N 47°31' W 122°24'3 5.5
2018-Jan-19 14:30N 47°31' W 122°28'3 5.5
2018-Jan-19 14:00N 47°31' W 122°24'3 5.6
2018-Jan-19 13:30N 47°31' W 122°28'0 0.0
2018-Jan-19 13:00N 47°31' W 122°28'0 0.0
2018-Jan-19 12:30N 47°31' W 122°28'0 0.0
2018-Jan-19 12:01N 47°31' W 122°28'0 0.0
2018-Jan-19 11:30N 47°31' W 122°28'0 0.0
2018-Jan-19 11:01N 47°31' W 122°28'0 0.0
2018-Jan-19 10:30N 47°31' W 122°28'0 0.0
2018-Jan-19 10:00N 47°31' W 122°28'0 0.0
2018-Jan-19 09:30N 47°31' W 122°28'0 0.0
2018-Jan-19 09:00N 47°31' W 122°28'0 0.0
2018-Jan-19 08:30N 47°31' W 122°28'0 0.0
2018-Jan-19 08:01N 47°31' W 122°28'0 0.0
2018-Jan-19 07:30N 47°31' W 122°28'0 0.0
2018-Jan-19 07:01N 47°31' W 122°28'0 0.0
2018-Jan-19 06:30N 47°31' W 122°28'0 0.0
2018-Jan-19 06:00N 47°31' W 122°28'1 2.6
2018-Jan-19 05:31N 47°31' W 122°30'3 6.1
2018-Jan-19 05:00N 47°31' W 122°25'2 3.8
2018-Jan-19 04:31N 47°31' W 122°28'3 5.5
2018-Jan-19 04:00N 47°31' W 122°24'3 5.6
2018-Jan-19 03:30N 47°31' W 122°28'0 0.4
2018-Jan-19 03:01N 47°31' W 122°28'3 5.6
2018-Jan-19 02:30N 47°31' W 122°24'4 8.1
2018-Jan-19 02:01N 47°31' W 122°30'1 2.6
2018-Jan-19 01:31N 47°31' W 122°28'3 5.6
2018-Jan-19 01:00N 47°31' W 122°24'3 5.6
2018-Jan-19 00:30N 47°31' W 122°28'3 5.5
2018-Jan-19 00:00N 47°31' W 122°24'2 4.1
2018-Jan-18 23:30N 47°31' W 122°27'0 0.5
2018-Jan-18 23:00N 47°31' W 122°27'2 3.5
2018-Jan-18 22:30N 47°31' W 122°25'2 4.5
2018-Jan-18 22:00N 47°31' W 122°28'0 0.0
2018-Jan-18 21:30N 47°31' W 122°28'2 4.0
2018-Jan-18 21:00N 47°31' W 122°25'1 2.0
2018-Jan-18 20:31N 47°31' W 122°26'1 2.6
2018-Jan-18 20:00N 47°31' W 122°24'2 4.7
2018-Jan-18 19:30N 47°31' W 122°28'1 2.7
2018-Jan-18 19:00N 47°31' W 122°30'2 4.0
2018-Jan-18 18:30N 47°31' W 122°27'2 4.1
2018-Jan-18 18:00N 47°31' W 122°24'3 5.5
2018-Jan-18 17:30N 47°31' W 122°28'1 1.4
2018-Jan-18 17:01N 47°31' W 122°28'2 3.9
2018-Jan-18 16:31N 47°31' W 122°25'3 5.5
2018-Jan-18 16:01N 47°31' W 122°29'1 1.9
2018-Jan-18 15:31N 47°31' W 122°28'3 5.5
2018-Jan-18 15:00N 47°31' W 122°24'3 5.5
2018-Jan-18 14:30N 47°31' W 122°28'3 5.5
2018-Jan-18 14:00N 47°31' W 122°24'3 5.6
2018-Jan-18 13:30N 47°31' W 122°28'0 0.0
2018-Jan-18 13:00N 47°31' W 122°28'0 0.0
2018-Jan-18 12:30N 47°31' W 122°28'0 0.0
2018-Jan-18 12:00N 47°31' W 122°28'0 0.0
2018-Jan-18 11:30N 47°31' W 122°28'0 0.0
2018-Jan-18 11:00N 47°31' W 122°28'0 0.0
2018-Jan-18 10:30N 47°31' W 122°28'0 0.0
2018-Jan-18 10:00N 47°31' W 122°28'0 0.0
2018-Jan-18 09:30N 47°31' W 122°28'0 0.0
2018-Jan-18 09:00N 47°31' W 122°28'0 0.0
2018-Jan-18 08:30N 47°31' W 122°28'0 0.0
2018-Jan-18 08:00N 47°31' W 122°28'0 0.0
2018-Jan-18 07:30N 47°31' W 122°28'0 0.0
2018-Jan-18 07:00N 47°31' W 122°28'0 0.0
2018-Jan-18 06:30N 47°31' W 122°28'0 0.0
2018-Jan-18 06:00N 47°31' W 122°28'1 2.6
2018-Jan-18 05:30N 47°31' W 122°30'3 6.8
2018-Jan-18 05:01N 47°31' W 122°25'2 4.4
2018-Jan-18 04:30N 47°31' W 122°28'3 5.5
2018-Jan-18 04:00N 47°31' W 122°24'3 6.7
2018-Jan-18 03:31N 47°31' W 122°29'1 1.4
2018-Jan-18 03:01N 47°31' W 122°28'3 5.6
2018-Jan-18 02:30N 47°31' W 122°24'4 8.1
2018-Jan-18 02:00N 47°31' W 122°30'2 4.2
2018-Jan-18 01:30N 47°31' W 122°27'2 4.0
2018-Jan-18 01:01N 47°31' W 122°24'0 0.0
2018-Jan-18 00:00N 47°31' W 122°24'0 0.0
2018-Jan-17 23:57N 47°31' W 122°24'  

Dump ship's entire track history